sensor_id;sensor_type;location;lat;lon;timestamp;P1;durP1;ratioP1;P2;durP2;ratioP2
28003;SDS011;15330;51.234;6.754;2023-02-23T00:00:34;77.65;;;50.33;;
28003;SDS011;15330;51.234;6.754;2023-02-23T00:03:00;80.45;;;53.22;;
28003;SDS011;15330;51.234;6.754;2023-02-23T00:05:27;80.68;;;50.67;;
28003;SDS011;15330;51.234;6.754;2023-02-23T00:07:54;78.47;;;50.67;;
28003;SDS011;15330;51.234;6.754;2023-02-23T00:10:20;77.93;;;51.50;;
28003;SDS011;15330;51.234;6.754;2023-02-23T00:12:49;82.32;;;52.85;;
28003;SDS011;15330;51.234;6.754;2023-02-23T00:15:15;78.00;;;51.13;;
28003;SDS011;15330;51.234;6.754;2023-02-23T00:17:41;81.60;;;51.85;;
28003;SDS011;15330;51.234;6.754;2023-02-23T00:20:08;82.78;;;53.50;;
28003;SDS011;15330;51.234;6.754;2023-02-23T00:22:39;81.75;;;52.70;;
28003;SDS011;15330;51.234;6.754;2023-02-23T00:25:06;86.97;;;53.45;;
28003;SDS011;15330;51.234;6.754;2023-02-23T00:27:33;80.78;;;53.25;;
28003;SDS011;15330;51.234;6.754;2023-02-23T00:30:00;81.30;;;50.15;;
28003;SDS011;15330;51.234;6.754;2023-02-23T00:32:26;80.60;;;51.90;;
28003;SDS011;15330;51.234;6.754;2023-02-23T00:34:51;81.32;;;51.88;;
28003;SDS011;15330;51.234;6.754;2023-02-23T00:37:18;80.70;;;51.40;;
28003;SDS011;15330;51.234;6.754;2023-02-23T00:39:43;86.32;;;53.00;;
28003;SDS011;15330;51.234;6.754;2023-02-23T00:42:10;80.03;;;50.78;;
28003;SDS011;15330;51.234;6.754;2023-02-23T00:44:35;81.20;;;52.03;;
28003;SDS011;15330;51.234;6.754;2023-02-23T00:47:04;81.47;;;52.78;;
28003;SDS011;15330;51.234;6.754;2023-02-23T00:49:31;80.13;;;50.50;;
28003;SDS011;15330;51.234;6.754;2023-02-23T00:51:56;82.45;;;53.83;;
28003;SDS011;15330;51.234;6.754;2023-02-23T00:54:22;83.65;;;53.75;;
28003;SDS011;15330;51.234;6.754;2023-02-23T00:56:47;84.20;;;54.10;;
28003;SDS011;15330;51.234;6.754;2023-02-23T00:59:13;79.25;;;51.83;;
28003;SDS011;15330;51.234;6.754;2023-02-23T01:01:39;81.00;;;51.72;;
28003;SDS011;15330;51.234;6.754;2023-02-23T01:04:09;90.05;;;56.22;;
28003;SDS011;15330;51.234;6.754;2023-02-23T01:06:35;82.82;;;52.22;;
28003;SDS011;15330;51.234;6.754;2023-02-23T01:09:04;87.38;;;56.00;;
28003;SDS011;15330;51.234;6.754;2023-02-23T01:11:35;82.32;;;53.28;;
28003;SDS011;15330;51.234;6.754;2023-02-23T01:14:00;85.80;;;53.85;;
28003;SDS011;15330;51.234;6.754;2023-02-23T01:16:29;86.72;;;54.33;;
28003;SDS011;15330;51.234;6.754;2023-02-23T01:18:57;83.50;;;55.00;;
28003;SDS011;15330;51.234;6.754;2023-02-23T01:21:25;89.57;;;54.65;;
28003;SDS011;15330;51.234;6.754;2023-02-23T01:23:53;86.15;;;53.75;;
28003;SDS011;15330;51.234;6.754;2023-02-23T01:26:21;85.03;;;53.75;;
28003;SDS011;15330;51.234;6.754;2023-02-23T01:28:48;84.03;;;53.90;;
28003;SDS011;15330;51.234;6.754;2023-02-23T01:31:17;86.20;;;53.95;;
28003;SDS011;15330;51.234;6.754;2023-02-23T01:33:43;85.90;;;53.20;;
28003;SDS011;15330;51.234;6.754;2023-02-23T01:36:10;87.43;;;56.60;;
28003;SDS011;15330;51.234;6.754;2023-02-23T01:38:37;85.03;;;54.92;;
28003;SDS011;15330;51.234;6.754;2023-02-23T01:41:02;84.30;;;54.42;;
28003;SDS011;15330;51.234;6.754;2023-02-23T01:43:28;83.80;;;54.17;;
28003;SDS011;15330;51.234;6.754;2023-02-23T01:45:54;88.60;;;57.38;;
28003;SDS011;15330;51.234;6.754;2023-02-23T01:48:25;88.43;;;55.65;;
28003;SDS011;15330;51.234;6.754;2023-02-23T01:53:18;86.55;;;56.85;;
28003;SDS011;15330;51.234;6.754;2023-02-23T01:55:48;87.55;;;54.88;;
28003;SDS011;15330;51.234;6.754;2023-02-23T01:58:22;83.95;;;54.45;;
28003;SDS011;15330;51.234;6.754;2023-02-23T02:00:57;90.63;;;56.92;;
28003;SDS011;15330;51.234;6.754;2023-02-23T02:05:56;95.20;;;58.72;;
28003;SDS011;15330;51.234;6.754;2023-02-23T02:08:25;94.80;;;59.45;;
28003;SDS011;15330;51.234;6.754;2023-02-23T02:10:54;97.60;;;58.63;;
28003;SDS011;15330;51.234;6.754;2023-02-23T02:13:21;103.32;;;58.25;;
28003;SDS011;15330;51.234;6.754;2023-02-23T02:18:48;92.15;;;56.92;;
28003;SDS011;15330;51.234;6.754;2023-02-23T02:24:24;102.00;;;60.85;;
28003;SDS011;15330;51.234;6.754;2023-02-23T02:41:29;105.55;;;59.63;;
28003;SDS011;15330;51.234;6.754;2023-02-23T02:44:29;103.38;;;59.00;;
28003;SDS011;15330;51.234;6.754;2023-02-23T02:47:16;106.15;;;61.00;;
28003;SDS011;15330;51.234;6.754;2023-02-23T02:49:50;106.30;;;61.90;;
28003;SDS011;15330;51.234;6.754;2023-02-23T02:52:56;107.78;;;59.28;;
28003;SDS011;15330;51.234;6.754;2023-02-23T02:55:27;109.00;;;61.38;;
28003;SDS011;15330;51.234;6.754;2023-02-23T02:58:01;113.20;;;64.82;;
28003;SDS011;15330;51.234;6.754;2023-02-23T03:00:36;113.57;;;62.60;;
28003;SDS011;15330;51.234;6.754;2023-02-23T03:03:34;110.40;;;61.17;;
28003;SDS011;15330;51.234;6.754;2023-02-23T03:18:41;106.63;;;61.00;;
28003;SDS011;15330;51.234;6.754;2023-02-23T03:22:41;111.93;;;64.75;;
28003;SDS011;15330;51.234;6.754;2023-02-23T03:25:12;112.05;;;62.33;;
28003;SDS011;15330;51.234;6.754;2023-02-23T03:31:13;117.93;;;63.65;;
28003;SDS011;15330;51.234;6.754;2023-02-23T03:40:16;123.40;;;64.47;;
28003;SDS011;15330;51.234;6.754;2023-02-23T03:43:08;116.80;;;63.53;;
28003;SDS011;15330;51.234;6.754;2023-02-23T03:45:56;120.00;;;64.72;;
28003;SDS011;15330;51.234;6.754;2023-02-23T03:48:44;123.38;;;65.82;;
28003;SDS011;15330;51.234;6.754;2023-02-23T03:51:31;117.38;;;64.22;;
28003;SDS011;15330;51.234;6.754;2023-02-23T03:54:20;128.90;;;66.32;;
28003;SDS011;15330;51.234;6.754;2023-02-23T03:57:11;129.13;;;64.75;;
28003;SDS011;15330;51.234;6.754;2023-02-23T03:59:59;128.00;;;66.20;;
28003;SDS011;15330;51.234;6.754;2023-02-23T04:02:47;125.68;;;65.03;;
28003;SDS011;15330;51.234;6.754;2023-02-23T04:05:36;115.47;;;62.88;;
28003;SDS011;15330;51.234;6.754;2023-02-23T04:08:26;111.90;;;62.47;;
28003;SDS011;15330;51.234;6.754;2023-02-23T04:11:17;114.85;;;61.97;;
28003;SDS011;15330;51.234;6.754;2023-02-23T04:14:08;116.47;;;60.42;;
28003;SDS011;15330;51.234;6.754;2023-02-23T04:16:40;113.22;;;59.95;;
28003;SDS011;15330;51.234;6.754;2023-02-23T04:19:07;119.38;;;62.90;;
28003;SDS011;15330;51.234;6.754;2023-02-23T04:21:32;114.00;;;63.20;;
28003;SDS011;15330;51.234;6.754;2023-02-23T04:23:57;107.05;;;60.42;;
28003;SDS011;15330;51.234;6.754;2023-02-23T04:26:23;120.60;;;61.88;;
28003;SDS011;15330;51.234;6.754;2023-02-23T04:28:49;114.85;;;59.97;;
28003;SDS011;15330;51.234;6.754;2023-02-23T04:31:14;105.40;;;59.00;;
28003;SDS011;15330;51.234;6.754;2023-02-23T04:33:41;104.28;;;56.25;;
28003;SDS011;15330;51.234;6.754;2023-02-23T04:36:07;106.88;;;59.42;;
28003;SDS011;15330;51.234;6.754;2023-02-23T04:38:32;109.43;;;55.40;;
28003;SDS011;15330;51.234;6.754;2023-02-23T04:40:58;109.07;;;58.45;;
28003;SDS011;15330;51.234;6.754;2023-02-23T04:43:23;103.95;;;55.63;;
28003;SDS011;15330;51.234;6.754;2023-02-23T04:45:48;103.50;;;56.92;;
28003;SDS011;15330;51.234;6.754;2023-02-23T04:48:14;103.47;;;56.10;;
28003;SDS011;15330;51.234;6.754;2023-02-23T04:50:39;108.40;;;58.03;;
28003;SDS011;15330;51.234;6.754;2023-02-23T04:53:05;99.75;;;54.72;;
28003;SDS011;15330;51.234;6.754;2023-02-23T04:55:30;105.40;;;57.05;;
28003;SDS011;15330;51.234;6.754;2023-02-23T04:57:57;108.18;;;57.20;;
28003;SDS011;15330;51.234;6.754;2023-02-23T05:00:24;101.43;;;55.45;;
28003;SDS011;15330;51.234;6.754;2023-02-23T05:02:49;113.35;;;59.58;;
28003;SDS011;15330;51.234;6.754;2023-02-23T05:05:15;112.78;;;60.22;;
28003;SDS011;15330;51.234;6.754;2023-02-23T05:07:40;106.88;;;59.72;;
28003;SDS011;15330;51.234;6.754;2023-02-23T05:10:06;108.32;;;60.03;;
28003;SDS011;15330;51.234;6.754;2023-02-23T05:12:32;100.50;;;57.03;;
28003;SDS011;15330;51.234;6.754;2023-02-23T05:14:57;106.88;;;59.28;;
28003;SDS011;15330;51.234;6.754;2023-02-23T05:17:23;110.72;;;59.95;;
28003;SDS011;15330;51.234;6.754;2023-02-23T05:19:48;108.70;;;59.25;;
28003;SDS011;15330;51.234;6.754;2023-02-23T05:22:14;112.82;;;61.38;;
28003;SDS011;15330;51.234;6.754;2023-02-23T05:24:39;106.70;;;59.30;;
28003;SDS011;15330;51.234;6.754;2023-02-23T05:27:09;109.00;;;58.38;;
28003;SDS011;15330;51.234;6.754;2023-02-23T05:29:34;106.95;;;61.17;;
28003;SDS011;15330;51.234;6.754;2023-02-23T05:32:00;111.20;;;59.92;;
28003;SDS011;15330;51.234;6.754;2023-02-23T05:34:26;115.45;;;61.00;;
28003;SDS011;15330;51.234;6.754;2023-02-23T05:36:51;111.80;;;60.25;;
28003;SDS011;15330;51.234;6.754;2023-02-23T05:39:18;113.05;;;60.70;;
28003;SDS011;15330;51.234;6.754;2023-02-23T05:41:43;112.28;;;61.67;;
28003;SDS011;15330;51.234;6.754;2023-02-23T05:44:09;110.28;;;61.47;;
28003;SDS011;15330;51.234;6.754;2023-02-23T05:46:34;113.15;;;63.90;;
28003;SDS011;15330;51.234;6.754;2023-02-23T05:49:00;115.80;;;60.90;;
28003;SDS011;15330;51.234;6.754;2023-02-23T05:51:27;114.40;;;62.55;;
28003;SDS011;15330;51.234;6.754;2023-02-23T05:53:53;112.32;;;61.53;;
28003;SDS011;15330;51.234;6.754;2023-02-23T05:56:19;125.93;;;67.40;;
28003;SDS011;15330;51.234;6.754;2023-02-23T05:58:46;116.10;;;62.15;;
28003;SDS011;15330;51.234;6.754;2023-02-23T06:01:12;120.72;;;61.85;;
28003;SDS011;15330;51.234;6.754;2023-02-23T06:03:37;115.75;;;62.15;;
28003;SDS011;15330;51.234;6.754;2023-02-23T06:06:03;114.07;;;62.40;;
28003;SDS011;15330;51.234;6.754;2023-02-23T06:08:29;127.45;;;71.05;;
28003;SDS011;15330;51.234;6.754;2023-02-23T06:10:54;136.75;;;74.90;;
28003;SDS011;15330;51.234;6.754;2023-02-23T06:13:20;138.88;;;70.28;;
28003;SDS011;15330;51.234;6.754;2023-02-23T06:15:45;127.28;;;68.60;;
28003;SDS011;15330;51.234;6.754;2023-02-23T06:18:11;118.00;;;63.22;;
28003;SDS011;15330;51.234;6.754;2023-02-23T06:20:36;122.72;;;65.85;;
28003;SDS011;15330;51.234;6.754;2023-02-23T06:23:02;126.40;;;66.25;;
28003;SDS011;15330;51.234;6.754;2023-02-23T06:25:29;123.13;;;65.40;;
28003;SDS011;15330;51.234;6.754;2023-02-23T06:27:55;122.65;;;61.72;;
28003;SDS011;15330;51.234;6.754;2023-02-23T06:30:20;120.45;;;62.85;;
28003;SDS011;15330;51.234;6.754;2023-02-23T06:32:46;125.97;;;65.03;;
28003;SDS011;15330;51.234;6.754;2023-02-23T06:35:12;117.70;;;64.43;;
28003;SDS011;15330;51.234;6.754;2023-02-23T06:37:37;122.90;;;65.35;;
28003;SDS011;15330;51.234;6.754;2023-02-23T06:40:03;118.28;;;64.68;;
28003;SDS011;15330;51.234;6.754;2023-02-23T06:42:30;116.13;;;62.33;;
28003;SDS011;15330;51.234;6.754;2023-02-23T06:44:56;122.07;;;64.57;;
28003;SDS011;15330;51.234;6.754;2023-02-23T06:47:21;122.38;;;64.03;;
28003;SDS011;15330;51.234;6.754;2023-02-23T06:49:46;126.30;;;66.13;;
28003;SDS011;15330;51.234;6.754;2023-02-23T06:52:12;132.00;;;68.10;;
28003;SDS011;15330;51.234;6.754;2023-02-23T06:54:41;124.32;;;68.13;;
28003;SDS011;15330;51.234;6.754;2023-02-23T06:57:07;120.03;;;67.45;;
28003;SDS011;15330;51.234;6.754;2023-02-23T06:59:33;121.55;;;66.28;;
28003;SDS011;15330;51.234;6.754;2023-02-23T07:01:58;138.80;;;78.13;;
28003;SDS011;15330;51.234;6.754;2023-02-23T07:04:23;125.75;;;70.85;;
28003;SDS011;15330;51.234;6.754;2023-02-23T07:06:50;144.27;;;80.13;;
28003;SDS011;15330;51.234;6.754;2023-02-23T07:09:15;122.20;;;67.40;;
28003;SDS011;15330;51.234;6.754;2023-02-23T07:11:41;144.88;;;80.10;;
28003;SDS011;15330;51.234;6.754;2023-02-23T07:14:09;133.52;;;73.82;;
28003;SDS011;15330;51.234;6.754;2023-02-23T07:16:35;116.50;;;65.85;;
28003;SDS011;15330;51.234;6.754;2023-02-23T07:19:00;111.57;;;61.90;;
28003;SDS011;15330;51.234;6.754;2023-02-23T07:21:27;108.65;;;61.80;;
28003;SDS011;15330;51.234;6.754;2023-02-23T07:23:53;113.00;;;63.70;;
28003;SDS011;15330;51.234;6.754;2023-02-23T07:26:18;117.72;;;63.00;;
28003;SDS011;15330;51.234;6.754;2023-02-23T07:28:44;108.72;;;59.20;;
28003;SDS011;15330;51.234;6.754;2023-02-23T07:31:09;103.93;;;59.58;;
28003;SDS011;15330;51.234;6.754;2023-02-23T07:33:34;104.65;;;58.53;;
28003;SDS011;15330;51.234;6.754;2023-02-23T07:36:00;97.20;;;57.40;;
28003;SDS011;15330;51.234;6.754;2023-02-23T07:38:27;107.50;;;63.08;;
28003;SDS011;15330;51.234;6.754;2023-02-23T07:40:52;101.35;;;59.00;;
28003;SDS011;15330;51.234;6.754;2023-02-23T07:43:18;102.45;;;57.45;;
28003;SDS011;15330;51.234;6.754;2023-02-23T07:45:46;101.40;;;58.83;;
28003;SDS011;15330;51.234;6.754;2023-02-23T07:48:12;97.53;;;55.97;;
28003;SDS011;15330;51.234;6.754;2023-02-23T07:50:38;92.03;;;55.42;;
28003;SDS011;15330;51.234;6.754;2023-02-23T07:53:04;95.72;;;55.80;;
28003;SDS011;15330;51.234;6.754;2023-02-23T07:55:30;96.28;;;55.42;;
28003;SDS011;15330;51.234;6.754;2023-02-23T07:57:55;97.47;;;57.47;;
28003;SDS011;15330;51.234;6.754;2023-02-23T08:00:21;93.70;;;55.60;;
28003;SDS011;15330;51.234;6.754;2023-02-23T08:02:46;91.60;;;54.05;;
28003;SDS011;15330;51.234;6.754;2023-02-23T08:05:12;101.30;;;57.25;;
28003;SDS011;15330;51.234;6.754;2023-02-23T08:07:37;95.82;;;53.63;;
28003;SDS011;15330;51.234;6.754;2023-02-23T08:10:03;99.78;;;51.95;;
28003;SDS011;15330;51.234;6.754;2023-02-23T08:12:30;100.20;;;51.55;;
28003;SDS011;15330;51.234;6.754;2023-02-23T08:14:57;100.63;;;51.85;;
28003;SDS011;15330;51.234;6.754;2023-02-23T08:17:22;108.22;;;55.22;;
28003;SDS011;15330;51.234;6.754;2023-02-23T08:19:48;108.82;;;52.38;;
28003;SDS011;15330;51.234;6.754;2023-02-23T08:22:13;117.30;;;54.35;;
28003;SDS011;15330;51.234;6.754;2023-02-23T08:24:39;116.85;;;56.47;;
28003;SDS011;15330;51.234;6.754;2023-02-23T08:27:04;109.57;;;53.08;;
28003;SDS011;15330;51.234;6.754;2023-02-23T08:29:30;118.88;;;56.05;;
28003;SDS011;15330;51.234;6.754;2023-02-23T08:31:55;118.50;;;57.60;;
28003;SDS011;15330;51.234;6.754;2023-02-23T08:34:21;123.50;;;56.03;;
28003;SDS011;15330;51.234;6.754;2023-02-23T08:36:47;114.63;;;53.97;;
28003;SDS011;15330;51.234;6.754;2023-02-23T08:39:13;112.57;;;52.47;;
28003;SDS011;15330;51.234;6.754;2023-02-23T08:41:39;111.22;;;54.38;;
28003;SDS011;15330;51.234;6.754;2023-02-23T08:44:05;116.82;;;53.60;;
28003;SDS011;15330;51.234;6.754;2023-02-23T08:46:31;115.82;;;55.50;;
28003;SDS011;15330;51.234;6.754;2023-02-23T08:48:56;114.72;;;56.47;;
28003;SDS011;15330;51.234;6.754;2023-02-23T08:51:22;111.10;;;53.92;;
28003;SDS011;15330;51.234;6.754;2023-02-23T08:53:48;100.43;;;49.40;;
28003;SDS011;15330;51.234;6.754;2023-02-23T08:56:13;130.85;;;63.42;;
28003;SDS011;15330;51.234;6.754;2023-02-23T08:58:39;114.32;;;57.53;;
28003;SDS011;15330;51.234;6.754;2023-02-23T09:01:05;123.63;;;58.75;;
28003;SDS011;15330;51.234;6.754;2023-02-23T09:03:31;114.80;;;56.72;;
28003;SDS011;15330;51.234;6.754;2023-02-23T09:06:14;103.13;;;53.28;;
28003;SDS011;15330;51.234;6.754;2023-02-23T09:08:41;117.20;;;58.17;;
28003;SDS011;15330;51.234;6.754;2023-02-23T09:11:07;105.05;;;51.30;;
28003;SDS011;15330;51.234;6.754;2023-02-23T09:13:32;107.85;;;52.40;;
28003;SDS011;15330;51.234;6.754;2023-02-23T09:15:58;108.35;;;51.90;;
28003;SDS011;15330;51.234;6.754;2023-02-23T09:18:23;108.72;;;52.45;;
28003;SDS011;15330;51.234;6.754;2023-02-23T09:20:52;116.68;;;57.40;;
28003;SDS011;15330;51.234;6.754;2023-02-23T09:23:17;115.15;;;54.55;;
28003;SDS011;15330;51.234;6.754;2023-02-23T09:25:43;111.40;;;54.42;;
28003;SDS011;15330;51.234;6.754;2023-02-23T09:28:13;106.00;;;53.72;;
28003;SDS011;15330;51.234;6.754;2023-02-23T09:30:41;116.70;;;55.63;;
28003;SDS011;15330;51.234;6.754;2023-02-23T09:33:08;119.97;;;55.05;;
28003;SDS011;15330;51.234;6.754;2023-02-23T09:35:34;108.75;;;52.50;;
28003;SDS011;15330;51.234;6.754;2023-02-23T09:38:00;103.53;;;48.70;;
28003;SDS011;15330;51.234;6.754;2023-02-23T09:40:29;107.40;;;51.95;;
28003;SDS011;15330;51.234;6.754;2023-02-23T09:43:20;103.60;;;49.72;;
28003;SDS011;15330;51.234;6.754;2023-02-23T09:45:59;106.50;;;49.80;;
28003;SDS011;15330;51.234;6.754;2023-02-23T09:48:33;98.65;;;48.08;;
28003;SDS011;15330;51.234;6.754;2023-02-23T09:50:59;94.93;;;46.78;;
28003;SDS011;15330;51.234;6.754;2023-02-23T09:55:57;92.10;;;45.97;;
28003;SDS011;15330;51.234;6.754;2023-02-23T09:58:24;85.40;;;42.38;;
28003;SDS011;15330;51.234;6.754;2023-02-23T10:04:01;132.48;;;65.72;;
28003;SDS011;15330;51.234;6.754;2023-02-23T10:06:31;95.65;;;45.90;;
28003;SDS011;15330;51.234;6.754;2023-02-23T10:09:01;85.93;;;40.60;;
28003;SDS011;15330;51.234;6.754;2023-02-23T10:11:36;86.20;;;40.92;;
28003;SDS011;15330;51.234;6.754;2023-02-23T10:14:22;80.03;;;41.03;;
28003;SDS011;15330;51.234;6.754;2023-02-23T10:22:28;87.13;;;39.65;;
28003;SDS011;15330;51.234;6.754;2023-02-23T10:25:05;86.63;;;42.13;;
28003;SDS011;15330;51.234;6.754;2023-02-23T10:27:39;96.32;;;44.72;;
28003;SDS011;15330;51.234;6.754;2023-02-23T10:30:23;87.78;;;41.28;;
28003;SDS011;15330;51.234;6.754;2023-02-23T10:35:37;89.85;;;41.90;;
28003;SDS011;15330;51.234;6.754;2023-02-23T10:38:03;90.43;;;41.63;;
28003;SDS011;15330;51.234;6.754;2023-02-23T10:40:30;94.72;;;42.08;;
28003;SDS011;15330;51.234;6.754;2023-02-23T10:42:58;97.45;;;41.67;;
28003;SDS011;15330;51.234;6.754;2023-02-23T10:45:26;87.10;;;41.92;;
28003;SDS011;15330;51.234;6.754;2023-02-23T10:48:03;88.13;;;41.22;;
28003;SDS011;15330;51.234;6.754;2023-02-23T10:50:32;90.75;;;39.72;;
28003;SDS011;15330;51.234;6.754;2023-02-23T10:58:48;95.78;;;41.00;;
28003;SDS011;15330;51.234;6.754;2023-02-23T11:04:19;84.30;;;36.30;;
28003;SDS011;15330;51.234;6.754;2023-02-23T11:06:47;87.65;;;36.40;;
28003;SDS011;15330;51.234;6.754;2023-02-23T11:14:44;72.80;;;32.42;;
28003;SDS011;15330;51.234;6.754;2023-02-23T11:17:22;71.13;;;32.10;;
28003;SDS011;15330;51.234;6.754;2023-02-23T11:22:46;68.45;;;32.25;;
28003;SDS011;15330;51.234;6.754;2023-02-23T11:25:27;69.40;;;32.47;;
28003;SDS011;15330;51.234;6.754;2023-02-23T11:27:54;69.32;;;33.15;;
28003;SDS011;15330;51.234;6.754;2023-02-23T11:30:21;67.07;;;32.30;;
28003;SDS011;15330;51.234;6.754;2023-02-23T11:32:55;64.65;;;31.48;;
28003;SDS011;15330;51.234;6.754;2023-02-23T11:37:48;70.43;;;35.35;;
28003;SDS011;15330;51.234;6.754;2023-02-23T11:40:30;73.53;;;36.13;;
28003;SDS011;15330;51.234;6.754;2023-02-23T11:45:31;72.80;;;33.88;;
28003;SDS011;15330;51.234;6.754;2023-02-23T11:48:03;82.20;;;38.53;;
28003;SDS011;15330;51.234;6.754;2023-02-23T11:50:29;74.32;;;36.63;;
28003;SDS011;15330;51.234;6.754;2023-02-23T11:53:13;75.75;;;36.35;;
28003;SDS011;15330;51.234;6.754;2023-02-23T11:55:47;80.00;;;37.13;;
28003;SDS011;15330;51.234;6.754;2023-02-23T12:01:03;68.15;;;32.92;;
28003;SDS011;15330;51.234;6.754;2023-02-23T12:03:36;68.32;;;32.40;;
28003;SDS011;15330;51.234;6.754;2023-02-23T12:06:08;67.05;;;30.50;;
28003;SDS011;15330;51.234;6.754;2023-02-23T12:11:06;65.30;;;30.02;;
28003;SDS011;15330;51.234;6.754;2023-02-23T12:13:39;62.75;;;29.00;;
28003;SDS011;15330;51.234;6.754;2023-02-23T12:21:13;58.75;;;28.95;;
28003;SDS011;15330;51.234;6.754;2023-02-23T12:23:39;59.80;;;28.83;;
28003;SDS011;15330;51.234;6.754;2023-02-23T12:26:10;59.45;;;30.45;;
28003;SDS011;15330;51.234;6.754;2023-02-23T12:31:20;60.22;;;29.38;;
28003;SDS011;15330;51.234;6.754;2023-02-23T12:33:54;55.65;;;28.38;;
28003;SDS011;15330;51.234;6.754;2023-02-23T12:36:41;62.85;;;29.58;;
28003;SDS011;15330;51.234;6.754;2023-02-23T12:41:50;61.63;;;30.05;;
28003;SDS011;15330;51.234;6.754;2023-02-23T12:44:45;52.92;;;26.33;;
28003;SDS011;15330;51.234;6.754;2023-02-23T12:47:19;59.30;;;27.25;;
28003;SDS011;15330;51.234;6.754;2023-02-23T12:49:54;57.55;;;26.92;;
28003;SDS011;15330;51.234;6.754;2023-02-23T12:52:32;53.17;;;25.23;;
28003;SDS011;15330;51.234;6.754;2023-02-23T12:55:01;46.45;;;23.75;;
28003;SDS011;15330;51.234;6.754;2023-02-23T13:03:05;46.22;;;22.52;;
28003;SDS011;15330;51.234;6.754;2023-02-23T13:05:50;43.92;;;21.58;;
28003;SDS011;15330;51.234;6.754;2023-02-23T13:11:24;53.67;;;24.30;;
28003;SDS011;15330;51.234;6.754;2023-02-23T13:19:12;41.90;;;22.20;;
28003;SDS011;15330;51.234;6.754;2023-02-23T13:22:20;42.53;;;21.67;;
28003;SDS011;15330;51.234;6.754;2023-02-23T13:24:52;47.70;;;22.50;;
28003;SDS011;15330;51.234;6.754;2023-02-23T13:27:25;47.05;;;23.35;;
28003;SDS011;15330;51.234;6.754;2023-02-23T13:29:57;45.72;;;23.00;;
28003;SDS011;15330;51.234;6.754;2023-02-23T13:32:24;41.13;;;22.23;;
28003;SDS011;15330;51.234;6.754;2023-02-23T13:37:23;44.42;;;23.23;;
28003;SDS011;15330;51.234;6.754;2023-02-23T13:40:01;47.90;;;24.10;;
28003;SDS011;15330;51.234;6.754;2023-02-23T13:53:00;50.83;;;24.20;;
28003;SDS011;15330;51.234;6.754;2023-02-23T13:55:36;54.25;;;26.48;;
28003;SDS011;15330;51.234;6.754;2023-02-23T13:58:15;53.15;;;25.00;;
28003;SDS011;15330;51.234;6.754;2023-02-23T14:00:52;50.58;;;25.45;;
28003;SDS011;15330;51.234;6.754;2023-02-23T14:03:28;52.42;;;25.98;;
28003;SDS011;15330;51.234;6.754;2023-02-23T14:05:58;54.72;;;25.77;;
28003;SDS011;15330;51.234;6.754;2023-02-23T14:08:27;60.70;;;26.48;;
28003;SDS011;15330;51.234;6.754;2023-02-23T14:11:06;49.60;;;25.20;;
28003;SDS011;15330;51.234;6.754;2023-02-23T14:13:32;52.33;;;26.38;;
28003;SDS011;15330;51.234;6.754;2023-02-23T14:24:09;57.35;;;26.90;;
28003;SDS011;15330;51.234;6.754;2023-02-23T14:26:40;48.28;;;23.77;;
28003;SDS011;15330;51.234;6.754;2023-02-23T14:31:51;52.55;;;25.92;;
28003;SDS011;15330;51.234;6.754;2023-02-23T14:34:18;55.90;;;26.02;;
28003;SDS011;15330;51.234;6.754;2023-02-23T14:36:46;53.17;;;25.67;;
28003;SDS011;15330;51.234;6.754;2023-02-23T14:39:18;52.20;;;26.45;;
28003;SDS011;15330;51.234;6.754;2023-02-23T14:41:52;57.45;;;28.08;;
28003;SDS011;15330;51.234;6.754;2023-02-23T14:44:40;56.95;;;26.88;;
28003;SDS011;15330;51.234;6.754;2023-02-23T14:47:11;53.88;;;26.40;;
28003;SDS011;15330;51.234;6.754;2023-02-23T14:49:43;60.67;;;26.63;;
28003;SDS011;15330;51.234;6.754;2023-02-23T14:52:54;55.13;;;26.08;;
28003;SDS011;15330;51.234;6.754;2023-02-23T14:57:36;58.35;;;25.60;;
28003;SDS011;15330;51.234;6.754;2023-02-23T15:00:14;57.97;;;26.88;;
28003;SDS011;15330;51.234;6.754;2023-02-23T15:02:51;59.45;;;25.48;;
28003;SDS011;15330;51.234;6.754;2023-02-23T15:05:21;59.65;;;25.63;;
28003;SDS011;15330;51.234;6.754;2023-02-23T15:07:49;53.33;;;22.80;;
28003;SDS011;15330;51.234;6.754;2023-02-23T15:10:27;51.20;;;24.42;;
28003;SDS011;15330;51.234;6.754;2023-02-23T15:12:58;52.30;;;24.05;;
28003;SDS011;15330;51.234;6.754;2023-02-23T15:15:25;52.33;;;23.58;;
28003;SDS011;15330;51.234;6.754;2023-02-23T15:17:52;55.22;;;23.25;;
28003;SDS011;15330;51.234;6.754;2023-02-23T15:20:20;50.22;;;23.70;;
28003;SDS011;15330;51.234;6.754;2023-02-23T15:22:52;50.47;;;23.13;;
28003;SDS011;15330;51.234;6.754;2023-02-23T15:25:24;52.08;;;23.80;;
28003;SDS011;15330;51.234;6.754;2023-02-23T15:27:57;49.72;;;21.80;;
28003;SDS011;15330;51.234;6.754;2023-02-23T15:30:42;50.53;;;22.88;;
28003;SDS011;15330;51.234;6.754;2023-02-23T15:33:11;56.20;;;22.73;;
28003;SDS011;15330;51.234;6.754;2023-02-23T15:35:39;50.33;;;22.02;;
28003;SDS011;15330;51.234;6.754;2023-02-23T15:38:14;47.00;;;22.48;;
28003;SDS011;15330;51.234;6.754;2023-02-23T15:40:44;45.65;;;21.02;;
28003;SDS011;15330;51.234;6.754;2023-02-23T15:43:10;52.53;;;24.20;;
28003;SDS011;15330;51.234;6.754;2023-02-23T15:45:37;50.47;;;22.65;;
28003;SDS011;15330;51.234;6.754;2023-02-23T15:48:07;49.35;;;22.33;;
28003;SDS011;15330;51.234;6.754;2023-02-23T15:50:42;47.83;;;23.00;;
28003;SDS011;15330;51.234;6.754;2023-02-23T15:53:20;46.92;;;21.60;;
28003;SDS011;15330;51.234;6.754;2023-02-23T15:55:53;48.63;;;22.73;;
28003;SDS011;15330;51.234;6.754;2023-02-23T15:58:25;47.15;;;20.50;;
28003;SDS011;15330;51.234;6.754;2023-02-23T16:00:58;54.25;;;26.05;;
28003;SDS011;15330;51.234;6.754;2023-02-23T16:03:45;50.58;;;24.02;;
28003;SDS011;15330;51.234;6.754;2023-02-23T16:08:54;48.33;;;23.23;;
28003;SDS011;15330;51.234;6.754;2023-02-23T16:11:21;51.72;;;25.10;;
28003;SDS011;15330;51.234;6.754;2023-02-23T16:13:47;58.13;;;29.00;;
28003;SDS011;15330;51.234;6.754;2023-02-23T16:16:16;53.17;;;24.10;;
28003;SDS011;15330;51.234;6.754;2023-02-23T16:18:52;57.60;;;27.83;;
28003;SDS011;15330;51.234;6.754;2023-02-23T16:21:25;45.03;;;21.05;;
28003;SDS011;15330;51.234;6.754;2023-02-23T16:23:55;47.88;;;20.17;;
28003;SDS011;15330;51.234;6.754;2023-02-23T16:29:30;43.80;;;21.10;;
28003;SDS011;15330;51.234;6.754;2023-02-23T16:31:59;44.33;;;21.50;;
28003;SDS011;15330;51.234;6.754;2023-02-23T16:34:43;42.60;;;20.70;;
28003;SDS011;15330;51.234;6.754;2023-02-23T16:37:17;45.30;;;21.52;;
28003;SDS011;15330;51.234;6.754;2023-02-23T16:39:46;48.78;;;22.02;;
28003;SDS011;15330;51.234;6.754;2023-02-23T16:42:16;47.33;;;23.30;;
28003;SDS011;15330;51.234;6.754;2023-02-23T16:44:47;50.95;;;22.45;;
28003;SDS011;15330;51.234;6.754;2023-02-23T16:49:48;47.72;;;21.45;;
28003;SDS011;15330;51.234;6.754;2023-02-23T16:52:15;40.05;;;20.30;;
28003;SDS011;15330;51.234;6.754;2023-02-23T16:54:43;38.53;;;18.10;;
28003;SDS011;15330;51.234;6.754;2023-02-23T16:57:18;45.47;;;20.52;;
28003;SDS011;15330;51.234;6.754;2023-02-23T16:59:48;40.55;;;18.70;;
28003;SDS011;15330;51.234;6.754;2023-02-23T17:02:15;43.55;;;19.48;;